Time;durP1;ratioP1;P1;durP2;ratioP2;P2;SDS_P1;SDS_P2;PMS_P1;PMS_P2;Temp;Humidity;BMP_temperature;BMP_pressure;BME280_temperature;BME280_humidity;BME280_pressure;Samples;Min_cycle;Max_cycle;Signal;HPM_P1;HPM_P2
2024/01/25 00:01:00;;;;;;;14.57;2.55;;;8.40;74.30;;;;;;5130493;27;20256;-72
2024/01/25 00:03:27;;;;;;;11.33;1.40;;;8.40;74.30;;;;;;5130343;27;20545;-73
2024/01/25 00:05:54;;;;;;;20.45;2.60;;;8.30;74.40;;;;;;5149271;27;20313;-71
2024/01/25 00:08:21;;;;;;;12.55;2.50;;;8.30;74.50;;;;;;5154271;27;20130;-73
2024/01/25 00:10:48;;;;;;;14.27;2.75;;;8.30;74.40;;;;;;5170180;27;20047;-73
2024/01/25 00:13:15;;;;;;;21.83;4.20;;;8.20;74.40;;;;;;5134236;27;20083;-72
2024/01/25 00:15:42;;;;;;;19.37;3.40;;;8.20;74.50;;;;;;5156254;27;20099;-70
2024/01/25 00:18:10;;;;;;;16.00;2.92;;;8.20;74.60;;;;;;5170395;27;20350;-71
2024/01/25 00:20:37;;;;;;;11.45;2.15;;;8.20;74.60;;;;;;5150690;27;20070;-72
2024/01/25 00:23:05;;;;;;;18.92;2.13;;;8.10;74.70;;;;;;5147987;27;20130;-72
2024/01/25 00:25:32;;;;;;;12.05;1.73;;;8.10;74.80;;;;;;5151507;27;20054;-70
2024/01/25 00:27:59;;;;;;;12.83;2.30;;;8.10;74.70;;;;;;5144805;27;20136;-70
2024/01/25 00:30:26;;;;;;;18.15;3.50;;;8.10;74.80;;;;;;5130697;27;21080;-71
2024/01/25 00:32:52;;;;;;;22.30;2.80;;;8.00;74.90;;;;;;5155716;27;20059;-71
2024/01/25 00:35:21;;;;;;;9.57;1.85;;;8.00;75.00;;;;;;5149364;27;20162;-71
2024/01/25 00:37:49;;;;;;;15.45;2.30;;;8.00;75.10;;;;;;5148716;27;20175;-73
2024/01/25 00:40:18;;;;;;;18.70;2.77;;;8.00;75.10;;;;;;5129702;27;20126;-71
2024/01/25 00:42:52;;;;;;;14.20;1.58;;;8.00;75.30;;;;;;5163898;27;21150;-72
2024/01/25 00:45:20;;;;;;;16.40;2.75;;;8.00;75.40;;;;;;5129970;27;20063;-71
2024/01/25 00:47:47;;;;;;;17.27;2.58;;;8.00;75.50;;;;;;5133817;27;20062;-71
2024/01/25 00:50:17;;;;;;;12.48;2.40;;;8.00;75.70;;;;;;5146723;27;20135;-74
2024/01/25 00:52:46;;;;;;;17.67;2.73;;;8.00;75.70;;;;;;5147306;27;20484;-71
2024/01/25 00:55:14;;;;;;;8.27;1.80;;;8.00;75.70;;;;;;5112422;27;20393;-73
2024/01/25 00:57:42;;;;;;;15.48;3.15;;;7.80;75.80;;;;;;5129942;27;20142;-71
2024/01/25 01:00:12;;;;;;;10.45;1.73;;;7.80;75.90;;;;;;5129345;27;20167;-74
2024/01/25 01:02:43;;;;;;;15.27;2.05;;;7.80;76.00;;;;;;5148289;27;20047;-71
2024/01/25 01:05:11;;;;;;;13.80;1.27;;;7.80;76.00;;;;;;5130056;27;20104;-71
2024/01/25 01:07:40;;;;;;;18.13;1.95;;;7.80;76.00;;;;;;5149214;27;20293;-73
2024/01/25 01:10:09;;;;;;;21.85;2.67;;;7.80;76.10;;;;;;5146542;27;20058;-72
2024/01/25 01:12:37;;;;;;;16.80;2.50;;;7.70;76.20;;;;;;5113081;27;20606;-71
2024/01/25 01:15:05;;;;;;;11.93;1.58;;;7.70;76.20;;;;;;5133483;27;20277;-71
2024/01/25 01:17:32;;;;;;;19.60;3.00;;;7.60;76.40;;;;;;5151128;27;20079;-70
2024/01/25 01:19:59;;;;;;;22.90;2.72;;;7.60;76.50;;;;;;5148998;27;20350;-71
2024/01/25 01:22:26;;;;;;;15.93;2.80;;;7.60;76.60;;;;;;5128973;27;20126;-71
2024/01/25 01:24:53;;;;;;;15.15;2.08;;;7.50;76.90;;;;;;5148245;27;20134;-71
2024/01/25 01:27:22;;;;;;;13.98;1.67;;;7.50;77.00;;;;;;5138788;27;20054;-72
2024/01/25 01:29:50;;;;;;;9.70;1.50;;;7.50;77.20;;;;;;5150785;27;20051;-75
2024/01/25 01:32:24;;;;;;;12.65;2.00;;;7.50;77.50;;;;;;5132999;27;20334;-71
2024/01/25 01:34:55;;;;;;;20.83;3.80;;;7.50;77.50;;;;;;5117181;27;20061;-72
2024/01/25 01:37:29;;;;;;;22.17;4.03;;;7.40;77.60;;;;;;5118141;27;20145;-70
2024/01/25 01:40:01;;;;;;;12.15;1.75;;;7.40;77.80;;;;;;5136834;27;20046;-71
2024/01/25 01:42:35;;;;;;;11.00;1.63;;;7.40;78.00;;;;;;5114311;27;20055;-72
2024/01/25 01:45:07;;;;;;;19.05;2.75;;;7.30;78.20;;;;;;5128515;27;20372;-72
2024/01/25 01:47:39;;;;;;;14.40;2.05;;;7.30;78.10;;;;;;5147392;27;20060;-72
2024/01/25 01:50:10;;;;;;;16.55;2.22;;;7.20;78.30;;;;;;5114693;27;20039;-70
2024/01/25 01:52:42;;;;;;;15.95;2.55;;;7.20;78.50;;;;;;5131200;27;20050;-73
2024/01/25 01:55:16;;;;;;;16.67;1.60;;;7.20;78.60;;;;;;5115200;27;20503;-71
2024/01/25 01:57:52;;;;;;;14.07;1.55;;;7.20;78.80;;;;;;5155354;27;20272;-71
2024/01/25 02:00:27;;;;;;;17.40;2.50;;;7.10;79.00;;;;;;5136867;27;20178;-74
2024/01/25 02:03:05;;;;;;;16.02;2.90;;;7.00;79.00;;;;;;5148190;27;20057;-73
2024/01/25 02:05:39;;;;;;;11.18;1.63;;;7.00;79.10;;;;;;5150614;27;20059;-72
2024/01/25 02:08:16;;;;;;;14.77;2.10;;;7.00;79.30;;;;;;5154012;27;20502;-74
2024/01/25 02:12:02;;;;;;;15.90;2.60;;;7.00;79.30;;;;;;5152451;27;20261;-69
2024/01/25 02:14:36;;;;;;;22.73;3.22;;;7.00;79.40;;;;;;5140426;27;20047;-69
2024/01/25 02:17:07;;;;;;;12.57;2.15;;;6.90;79.70;;;;;;5137830;27;20042;-70
2024/01/25 02:19:37;;;;;;;13.57;2.38;;;6.90;79.90;;;;;;5119029;27;20081;-70
2024/01/25 02:22:09;;;;;;;26.17;3.40;;;6.90;80.10;;;;;;5138179;27;20047;-69
2024/01/25 02:24:43;;;;;;;22.33;2.88;;;6.90;80.30;;;;;;5154304;27;20309;-74
2024/01/25 02:27:16;;;;;;;14.23;2.10;;;6.80;80.30;;;;;;5138075;27;20831;-73
2024/01/25 02:29:52;;;;;;;25.35;3.25;;;6.80;80.50;;;;;;5142180;27;20061;-72
2024/01/25 02:32:23;;;;;;;19.08;2.85;;;6.70;80.60;;;;;;5137142;27;20049;-71
2024/01/25 02:34:55;;;;;;;14.17;1.83;;;6.70;80.70;;;;;;5153927;27;20103;-72
2024/01/25 02:37:28;;;;;;;15.02;2.17;;;6.70;80.90;;;;;;5124489;27;20384;-74
2024/01/25 02:40:04;;;;;;;18.90;2.42;;;6.70;80.90;;;;;;5138594;27;20054;-70
2024/01/25 02:42:38;;;;;;;28.05;2.90;;;6.60;81.00;;;;;;5152550;27;20050;-73
2024/01/25 02:45:13;;;;;;;17.13;2.85;;;6.60;80.90;;;;;;5123316;27;20928;-70
2024/01/25 02:47:44;;;;;;;20.67;3.03;;;6.60;81.10;;;;;;5140006;27;20081;-72
2024/01/25 02:54:49;;;;;;;14.07;1.88;;;6.50;81.20;;;;;;5157889;27;20224;-74
2024/01/25 02:57:22;;;;;;;16.27;2.65;;;6.50;81.30;;;;;;5122301;27;20141;-70
2024/01/25 02:59:54;;;;;;;21.55;2.63;;;6.50;81.50;;;;;;5140670;27;20079;-73
2024/01/25 03:02:26;;;;;;;18.73;2.50;;;6.40;81.40;;;;;;5158922;27;21073;-70
2024/01/25 03:05:00;;;;;;;19.90;2.30;;;6.40;81.50;;;;;;5149168;27;20256;-72
2024/01/25 03:07:32;;;;;;;15.98;2.22;;;6.30;81.60;;;;;;5161262;27;21240;-69
2024/01/25 03:10:06;;;;;;;11.18;1.70;;;6.30;81.70;;;;;;5161896;27;20055;-72
2024/01/25 03:12:40;;;;;;;23.85;3.50;;;6.30;82.00;;;;;;5154360;27;20805;-69
2024/01/25 03:15:14;;;;;;;18.70;2.50;;;6.30;82.00;;;;;;5144112;27;20078;-72
2024/01/25 03:17:45;;;;;;;23.20;3.25;;;6.20;82.00;;;;;;5143481;27;20267;-70
2024/01/25 03:20:17;;;;;;;21.25;3.47;;;6.30;82.50;;;;;;5140493;27;20099;-71
2024/01/25 03:22:49;;;;;;;21.20;2.55;;;6.30;82.60;;;;;;5158513;27;20062;-72
2024/01/25 03:25:20;;;;;;;24.42;2.72;;;6.20;82.60;;;;;;5134039;27;20046;-69
2024/01/25 03:27:56;;;;;;;17.07;3.00;;;6.20;82.70;;;;;;5178200;27;20051;-70
2024/01/25 03:30:26;;;;;;;18.52;2.97;;;6.20;82.80;;;;;;5126918;27;20269;-70
2024/01/25 03:32:57;;;;;;;23.65;2.63;;;6.20;82.90;;;;;;5122171;27;20047;-74
2024/01/25 03:35:27;;;;;;;19.63;2.70;;;6.10;82.90;;;;;;5139952;27;20137;-73
2024/01/25 03:37:57;;;;;;;20.65;3.35;;;6.10;83.00;;;;;;5122144;27;20171;-73
2024/01/25 03:43:26;;;;;;;21.00;3.60;;;6.10;83.20;;;;;;5178993;27;20263;-70
2024/01/25 03:45:57;;;;;;;18.08;1.77;;;6.00;83.20;;;;;;5162990;27;20055;-71
2024/01/25 03:48:28;;;;;;;19.63;2.33;;;6.10;83.40;;;;;;5131435;27;20135;-70
2024/01/25 03:50:59;;;;;;;22.58;2.70;;;6.10;83.30;;;;;;5142248;27;20054;-70
2024/01/25 03:53:33;;;;;;;17.83;2.53;;;6.00;83.30;;;;;;5142638;27;20103;-69
2024/01/25 03:56:05;;;;;;;21.13;2.72;;;6.00;83.40;;;;;;5151167;27;20296;-71
2024/01/25 03:58:39;;;;;;;18.15;2.60;;;6.00;83.20;;;;;;5134754;27;20982;-72
2024/01/25 04:01:11;;;;;;;18.38;2.53;;;6.00;83.20;;;;;;5122255;27;20100;-72
2024/01/25 04:03:41;;;;;;;21.55;2.78;;;6.00;83.30;;;;;;5117980;27;20109;-73
2024/01/25 04:06:12;;;;;;;17.13;2.27;;;6.00;83.30;;;;;;5110150;27;20133;-73
2024/01/25 04:08:43;;;;;;;21.05;3.10;;;6.00;83.20;;;;;;5118398;27;20264;-70
2024/01/25 04:11:16;;;;;;;9.98;1.73;;;6.00;83.30;;;;;;5134378;27;20063;-70
2024/01/25 04:13:49;;;;;;;13.30;2.33;;;6.00;83.30;;;;;;5118325;27;20061;-74
2024/01/25 04:16:29;;;;;;;14.38;2.53;;;6.00;83.30;;;;;;5142080;27;20062;-73
2024/01/25 04:19:00;;;;;;;10.27;1.50;;;6.00;83.30;;;;;;5165590;27;20051;-70
2024/01/25 04:21:36;;;;;;;23.48;3.05;;;6.00;83.30;;;;;;5155881;27;20735;-71
2024/01/25 04:24:08;;;;;;;19.83;2.80;;;5.90;83.30;;;;;;5148831;27;20538;-74
2024/01/25 04:26:41;;;;;;;18.95;1.95;;;5.90;83.40;;;;;;5152415;27;20106;-69
2024/01/25 04:29:15;;;;;;;19.17;2.47;;;5.90;83.60;;;;;;5136420;27;20134;-71
2024/01/25 04:31:48;;;;;;;16.70;2.70;;;5.90;83.60;;;;;;5116462;27;20083;-72
2024/01/25 04:34:18;;;;;;;21.65;2.95;;;5.90;83.70;;;;;;5134675;27;20265;-71
2024/01/25 04:36:49;;;;;;;15.30;2.20;;;5.80;83.80;;;;;;5152742;27;20047;-69
2024/01/25 04:39:21;;;;;;;25.30;4.13;;;5.90;84.00;;;;;;5134232;27;20133;-71
2024/01/25 04:41:55;;;;;;;24.27;4.22;;;5.90;84.00;;;;;;5133414;27;20127;-70
2024/01/25 04:44:31;;;;;;;20.77;4.03;;;5.90;84.20;;;;;;5155083;27;20230;-73
2024/01/25 04:47:03;;;;;;;21.35;2.90;;;5.80;84.20;;;;;;5116659;27;20276;-71
2024/01/25 04:49:37;;;;;;;20.98;3.15;;;5.80;84.30;;;;;;5144877;27;20052;-75
2024/01/25 04:52:17;;;;;;;16.10;2.80;;;5.80;84.20;;;;;;5100844;27;20572;-73
2024/01/25 04:54:47;;;;;;;13.32;2.40;;;5.80;84.40;;;;;;5132866;27;20055;-70
2024/01/25 04:57:20;;;;;;;25.50;3.50;;;5.80;84.40;;;;;;5151290;27;20108;-74
2024/01/25 04:59:56;;;;;;;20.70;3.08;;;5.80;84.40;;;;;;5153564;27;20658;-74
2024/01/25 05:02:26;;;;;;;22.10;3.05;;;5.70;84.20;;;;;;5135675;27;20046;-72
2024/01/25 05:04:57;;;;;;;17.55;3.08;;;5.70;84.30;;;;;;5134541;27;20535;-71
2024/01/25 05:07:29;;;;;;;19.38;2.65;;;5.70;84.30;;;;;;5150148;27;20090;-70
2024/01/25 05:09:59;;;;;;;20.30;3.00;;;5.70;84.20;;;;;;5142715;27;20043;-69
2024/01/25 05:12:31;;;;;;;25.83;3.55;;;5.70;84.30;;;;;;5171908;27;20288;-73
2024/01/25 05:15:09;;;;;;;24.60;3.40;;;5.70;84.40;;;;;;5160235;27;20051;-72
2024/01/25 05:17:41;;;;;;;9.02;1.65;;;5.70;84.30;;;;;;5152157;27;20043;-70
2024/01/25 05:20:13;;;;;;;21.13;3.00;;;5.70;84.30;;;;;;5131923;27;20998;-71
2024/01/25 05:22:46;;;;;;;21.27;3.27;;;5.70;84.30;;;;;;5131828;27;20050;-70
2024/01/25 05:25:20;;;;;;;25.42;4.20;;;5.70;84.30;;;;;;5138069;27;20306;-71
2024/01/25 05:27:49;;;;;;;14.68;3.08;;;5.70;84.30;;;;;;5137223;27;20122;-71
2024/01/25 05:30:17;;;;;;;29.45;3.55;;;5.70;84.40;;;;;;5148497;27;20130;-71
2024/01/25 05:32:45;;;;;;;20.98;2.92;;;5.70;84.40;;;;;;5143440;27;20066;-71
2024/01/25 05:35:13;;;;;;;20.07;3.13;;;5.70;84.40;;;;;;5146981;27;20054;-71
2024/01/25 05:37:40;;;;;;;24.08;3.80;;;5.70;84.30;;;;;;5147476;27;20257;-71
2024/01/25 05:40:09;;;;;;;22.42;4.03;;;5.70;84.30;;;;;;5146566;27;20764;-71
2024/01/25 05:42:36;;;;;;;21.60;2.80;;;5.60;84.30;;;;;;5128551;27;20098;-71
2024/01/25 05:45:03;;;;;;;23.85;2.85;;;5.60;84.40;;;;;;5127882;27;20078;-71
2024/01/25 05:47:31;;;;;;;20.67;3.20;;;5.60;84.40;;;;;;5128654;27;20151;-71
2024/01/25 05:49:58;;;;;;;21.95;3.33;;;5.60;84.40;;;;;;5128768;27;20756;-71
2024/01/25 05:52:26;;;;;;;17.80;2.85;;;5.60;84.50;;;;;;5125765;27;20139;-71
2024/01/25 05:54:53;;;;;;;22.45;2.83;;;5.60;84.50;;;;;;5147721;27;20059;-71
2024/01/25 05:57:20;;;;;;;15.57;2.78;;;5.50;84.50;;;;;;5128400;27;20499;-71
2024/01/25 05:59:47;;;;;;;18.23;3.00;;;5.50;84.50;;;;;;5146990;27;20134;-71
2024/01/25 06:02:15;;;;;;;21.40;3.30;;;5.50;84.60;;;;;;5139282;27;20352;-71
2024/01/25 06:04:43;;;;;;;24.48;4.15;;;5.50;84.90;;;;;;5168336;27;20104;-71
2024/01/25 06:07:10;;;;;;;11.02;2.10;;;5.50;85.00;;;;;;5131896;27;20175;-71
2024/01/25 06:09:37;;;;;;;24.15;3.33;;;5.50;85.20;;;;;;5142217;27;20138;-71
2024/01/25 06:12:05;;;;;;;15.77;2.30;;;5.50;85.10;;;;;;5148249;27;20066;-71
2024/01/25 06:14:32;;;;;;;15.88;2.42;;;5.40;85.20;;;;;;5167946;27;20255;-71
2024/01/25 06:16:59;;;;;;;11.75;1.75;;;5.30;85.30;;;;;;5148679;27;20078;-71
2024/01/25 06:19:26;;;;;;;20.92;3.67;;;5.40;85.40;;;;;;5114682;27;21373;-71
2024/01/25 06:21:55;;;;;;;11.23;1.20;;;5.30;85.50;;;;;;5134467;27;20553;-71
2024/01/25 06:24:21;;;;;;;18.47;2.27;;;5.30;85.60;;;;;;5146862;27;20059;-71
2024/01/25 06:26:48;;;;;;;22.67;3.28;;;5.30;85.50;;;;;;5108361;27;20368;-71
2024/01/25 06:29:15;;;;;;;17.52;3.03;;;5.30;85.70;;;;;;5127431;27;20055;-71
2024/01/25 06:31:44;;;;;;;21.33;2.78;;;5.30;85.60;;;;;;5140707;27;20042;-71
2024/01/25 06:34:11;;;;;;;22.63;4.00;;;5.20;85.70;;;;;;5161988;27;20042;-71
2024/01/25 06:36:38;;;;;;;17.10;2.83;;;5.20;85.70;;;;;;5148307;27;20042;-71
2024/01/25 06:39:07;;;;;;;16.45;2.55;;;5.10;85.70;;;;;;5130447;27;20248;-71
2024/01/25 06:41:34;;;;;;;19.27;3.65;;;5.10;85.60;;;;;;5142458;27;20138;-71
2024/01/25 06:44:01;;;;;;;23.85;3.35;;;5.10;85.50;;;;;;5126102;27;20123;-71
2024/01/25 06:46:28;;;;;;;22.45;3.42;;;5.10;85.50;;;;;;5164206;27;20078;-71
2024/01/25 06:48:55;;;;;;;24.63;5.13;;;5.10;85.50;;;;;;5130980;27;20126;-71
2024/01/25 06:51:22;;;;;;;15.18;2.55;;;5.10;85.50;;;;;;5128107;27;20360;-71
2024/01/25 06:53:49;;;;;;;19.55;3.97;;;5.00;85.60;;;;;;5166842;27;20154;-71
2024/01/25 06:56:20;;;;;;;16.45;3.10;;;5.10;85.50;;;;;;5165361;27;20137;-71
2024/01/25 06:58:46;;;;;;;19.05;3.63;;;5.00;85.50;;;;;;5147629;27;20067;-72
2024/01/25 07:01:13;;;;;;;19.73;3.53;;;5.00;85.40;;;;;;5139118;27;20223;-72
2024/01/25 07:03:40;;;;;;;20.45;3.55;;;5.00;85.40;;;;;;5130842;27;20724;-72
2024/01/25 07:06:07;;;;;;;19.80;3.72;;;5.00;85.50;;;;;;5162742;27;20244;-72
2024/01/25 07:08:34;;;;;;;22.65;3.30;;;5.00;85.50;;;;;;5146962;27;20076;-73
2024/01/25 07:11:01;;;;;;;15.77;2.85;;;5.00;85.50;;;;;;5126151;27;20791;-73
2024/01/25 07:13:30;;;;;;;18.70;2.97;;;5.00;85.60;;;;;;5145130;27;20051;-73
2024/01/25 07:15:57;;;;;;;27.52;3.13;;;5.00;85.60;;;;;;5143774;27;20316;-73
2024/01/25 07:18:24;;;;;;;24.65;3.08;;;5.00;85.60;;;;;;5158415;27;20709;-73
2024/01/25 07:20:51;;;;;;;21.38;3.33;;;5.10;85.60;;;;;;5145973;27;20054;-72
2024/01/25 07:23:19;;;;;;;17.08;2.58;;;5.10;85.60;;;;;;5128623;27;20046;-72
2024/01/25 07:25:46;;;;;;;23.57;2.90;;;5.10;85.60;;;;;;5141897;27;20047;-73
2024/01/25 07:28:13;;;;;;;21.60;3.47;;;5.10;85.60;;;;;;5142080;27;20267;-73
2024/01/25 07:30:41;;;;;;;22.90;3.50;;;5.10;85.50;;;;;;5161573;27;20054;-73
2024/01/25 07:33:08;;;;;;;26.25;3.70;;;5.10;85.50;;;;;;5165569;27;20055;-73
2024/01/25 07:35:35;;;;;;;24.40;4.03;;;5.20;85.70;;;;;;5162255;27;20062;-73
2024/01/25 07:38:03;;;;;;;23.83;3.77;;;5.20;85.70;;;;;;5146983;27;20055;-73
2024/01/25 07:40:30;;;;;;;23.33;4.03;;;5.20;85.90;;;;;;5131101;27;20273;-72
2024/01/25 07:42:57;;;;;;;26.63;3.58;;;5.20;85.90;;;;;;5149019;27;20224;-73
2024/01/25 07:45:24;;;;;;;28.98;4.00;;;5.20;85.90;;;;;;5161701;27;20073;-73
2024/01/25 07:47:53;;;;;;;22.05;2.80;;;5.20;85.90;;;;;;5148573;27;20182;-71
2024/01/25 07:54:21;;;;;;;19.90;3.22;;;5.30;86.10;;;;;;5168146;27;20295;-71
2024/01/25 07:56:48;;;;;;;26.48;4.22;;;5.30;86.00;;;;;;5149531;27;20050;-74
2024/01/25 07:59:16;;;;;;;28.75;4.40;;;5.30;86.20;;;;;;5168445;27;20092;-73
2024/01/25 08:01:43;;;;;;;16.50;3.05;;;5.30;86.20;;;;;;5130937;27;20129;-72
2024/01/25 08:04:11;;;;;;;25.20;4.73;;;5.30;86.40;;;;;;5168722;27;20776;-73
2024/01/25 08:06:38;;;;;;;19.95;2.75;;;5.30;86.30;;;;;;5151312;27;20244;-73
2024/01/25 08:09:05;;;;;;;18.95;3.33;;;5.30;86.50;;;;;;5167179;27;20051;-73
2024/01/25 08:11:33;;;;;;;18.83;3.60;;;5.30;86.40;;;;;;5126346;27;20050;-71
2024/01/25 08:14:00;;;;;;;20.05;3.15;;;5.20;86.50;;;;;;5165670;27;20057;-72
2024/01/25 08:16:27;;;;;;;21.10;3.47;;;5.20;86.70;;;;;;5130909;27;20077;-72
2024/01/25 08:18:54;;;;;;;15.52;2.63;;;5.10;86.70;;;;;;5141539;27;20253;-73
2024/01/25 08:21:23;;;;;;;20.20;3.22;;;5.20;86.90;;;;;;5131884;27;20089;-72
2024/01/25 08:23:49;;;;;;;22.73;3.58;;;5.20;86.90;;;;;;5129642;27;20067;-72
2024/01/25 08:26:16;;;;;;;31.40;3.25;;;5.20;87.00;;;;;;5110146;27;20134;-72
2024/01/25 08:28:44;;;;;;;17.17;3.30;;;5.20;87.00;;;;;;5153709;27;20058;-73
2024/01/25 08:31:11;;;;;;;18.00;3.30;;;5.20;87.00;;;;;;5130932;27;20770;-72
2024/01/25 08:33:41;;;;;;;28.45;4.65;;;5.20;87.10;;;;;;5113262;27;20665;-72
2024/01/25 08:36:08;;;;;;;21.42;3.30;;;5.20;87.20;;;;;;5127605;27;21119;-72
2024/01/25 08:38:37;;;;;;;25.08;3.67;;;5.30;87.20;;;;;;5144615;27;20047;-72
2024/01/25 08:41:04;;;;;;;24.70;3.40;;;5.30;87.30;;;;;;5110118;27;20788;-72
2024/01/25 08:43:31;;;;;;;27.50;4.00;;;5.30;87.30;;;;;;5130784;27;20337;-72
2024/01/25 08:45:58;;;;;;;26.63;3.47;;;5.30;87.20;;;;;;5130313;27;20051;-72
2024/01/25 08:48:25;;;;;;;27.95;4.47;;;5.30;87.30;;;;;;5146501;27;20043;-72
2024/01/25 08:50:54;;;;;;;21.90;3.42;;;5.30;87.50;;;;;;5149523;27;20115;-72
2024/01/25 08:53:22;;;;;;;18.23;2.87;;;5.30;87.30;;;;;;5169816;27;20057;-72
2024/01/25 08:55:50;;;;;;;18.73;2.92;;;5.30;87.30;;;;;;5151107;27;20328;-73
2024/01/25 08:58:17;;;;;;;22.27;3.30;;;5.30;87.40;;;;;;5135102;27;20127;-72
2024/01/25 09:00:44;;;;;;;23.02;3.88;;;5.30;87.30;;;;;;5128803;27;20108;-73
2024/01/25 09:03:11;;;;;;;24.60;3.45;;;5.40;87.40;;;;;;5129252;27;20075;-72
2024/01/25 09:05:44;;;;;;;22.30;3.43;;;5.40;87.30;;;;;;5153333;27;20051;-72
2024/01/25 09:08:12;;;;;;;22.63;3.35;;;5.40;87.50;;;;;;5169158;27;20769;-72
2024/01/25 09:10:41;;;;;;;21.60;3.10;;;5.50;87.50;;;;;;5140657;27;20506;-72
2024/01/25 09:13:09;;;;;;;22.85;4.18;;;5.50;87.50;;;;;;5147544;27;20135;-72
2024/01/25 09:15:36;;;;;;;20.88;3.42;;;5.50;87.50;;;;;;5134362;27;20123;-73
2024/01/25 09:18:04;;;;;;;27.17;3.43;;;5.50;87.50;;;;;;5168678;27;20119;-72
2024/01/25 09:20:31;;;;;;;20.83;3.30;;;5.50;87.70;;;;;;5147771;27;21199;-72
2024/01/25 09:22:58;;;;;;;24.33;4.28;;;5.50;87.60;;;;;;5138319;27;20048;-72
2024/01/25 09:25:25;;;;;;;24.40;3.38;;;5.50;87.60;;;;;;5155640;27;20047;-73
2024/01/25 09:27:52;;;;;;;25.35;3.75;;;5.60;87.60;;;;;;5130954;27;20063;-72
2024/01/25 09:30:21;;;;;;;20.37;2.70;;;5.60;87.60;;;;;;5146680;27;20137;-72
2024/01/25 09:32:48;;;;;;;17.23;2.63;;;5.60;87.50;;;;;;5164188;27;20245;-72
2024/01/25 09:35:15;;;;;;;25.00;4.32;;;5.60;87.50;;;;;;5145788;27;20055;-72
2024/01/25 09:37:42;;;;;;;26.77;3.92;;;5.60;87.40;;;;;;5165264;27;20054;-75
2024/01/25 09:40:10;;;;;;;11.63;1.75;;;5.70;87.40;;;;;;5138773;27;20112;-73
2024/01/25 09:42:38;;;;;;;23.20;2.80;;;5.70;87.40;;;;;;5158388;27;20053;-72
2024/01/25 09:45:08;;;;;;;22.38;4.47;;;5.70;87.30;;;;;;5146272;27;21149;-72
2024/01/25 09:47:36;;;;;;;22.85;3.58;;;5.70;87.20;;;;;;5146324;27;20050;-72
2024/01/25 09:50:04;;;;;;;21.05;3.22;;;5.70;87.20;;;;;;5147869;27;20644;-72
2024/01/25 09:52:33;;;;;;;20.90;3.33;;;5.70;87.20;;;;;;5166583;27;20142;-72
2024/01/25 09:55:01;;;;;;;20.80;3.73;;;5.70;87.20;;;;;;5149343;27;20142;-72
2024/01/25 09:57:31;;;;;;;28.50;4.20;;;5.80;87.20;;;;;;5121180;27;20677;-73
2024/01/25 09:59:58;;;;;;;15.57;2.70;;;5.80;87.20;;;;;;5145315;27;20059;-73
2024/01/25 10:02:25;;;;;;;14.57;2.67;;;5.80;87.20;;;;;;5165219;27;20158;-73
2024/01/25 10:04:54;;;;;;;26.23;4.53;;;5.80;87.20;;;;;;5149396;27;20619;-73
2024/01/25 10:07:36;;;;;;;26.73;4.57;;;5.80;87.20;;;;;;5161612;27;20712;-72
2024/01/25 10:10:04;;;;;;;21.88;3.53;;;5.80;87.20;;;;;;5147412;27;20372;-71
2024/01/25 10:12:31;;;;;;;24.25;4.93;;;5.80;87.30;;;;;;5148853;27;20057;-72
2024/01/25 10:14:59;;;;;;;26.20;4.50;;;5.80;87.30;;;;;;5131921;27;20050;-72
2024/01/25 10:17:26;;;;;;;27.70;3.67;;;5.90;87.30;;;;;;5150863;27;20054;-72
2024/01/25 10:19:55;;;;;;;29.27;4.93;;;5.90;87.40;;;;;;5147217;27;20050;-72
2024/01/25 10:22:22;;;;;;;20.10;3.88;;;5.90;87.40;;;;;;5142289;27;20249;-72
2024/01/25 10:24:50;;;;;;;24.40;3.92;;;5.90;87.40;;;;;;5146941;27;20129;-72
2024/01/25 10:27:18;;;;;;;16.08;3.05;;;6.00;87.40;;;;;;5142008;27;20145;-71
2024/01/25 10:29:45;;;;;;;21.73;4.25;;;6.00;87.50;;;;;;5147991;27;20113;-72
2024/01/25 10:32:13;;;;;;;22.33;5.63;;;6.00;87.50;;;;;;5161889;27;20051;-72
2024/01/25 10:34:40;;;;;;;20.88;3.53;;;6.00;87.50;;;;;;5126113;27;21392;-72
2024/01/25 10:37:09;;;;;;;29.17;4.60;;;6.10;87.60;;;;;;5141068;27;20051;-72
2024/01/25 10:39:36;;;;;;;22.88;4.57;;;6.10;87.50;;;;;;5145747;27;20746;-72
2024/01/25 10:42:03;;;;;;;26.83;4.65;;;6.20;87.50;;;;;;5141564;27;20165;-72
2024/01/25 10:44:30;;;;;;;24.00;4.07;;;6.20;87.50;;;;;;5162846;27;20133;-72
2024/01/25 10:46:58;;;;;;;26.98;5.10;;;6.20;87.50;;;;;;5145249;27;20241;-72
2024/01/25 10:49:26;;;;;;;24.60;4.60;;;6.20;87.50;;;;;;5143950;27;20061;-72
2024/01/25 10:51:54;;;;;;;23.80;4.28;;;6.30;87.50;;;;;;5146701;27;20524;-72
2024/01/25 10:54:23;;;;;;;20.67;4.90;;;6.30;87.40;;;;;;5144461;27;20069;-72
2024/01/25 10:56:50;;;;;;;23.57;5.00;;;6.40;87.50;;;;;;5169240;27;20249;-72
2024/01/25 10:59:17;;;;;;;22.30;4.13;;;6.40;87.60;;;;;;5166183;27;20347;-72
2024/01/25 11:01:45;;;;;;;18.83;2.92;;;6.50;87.60;;;;;;5146327;27;20525;-72
2024/01/25 11:04:17;;;;;;;23.70;5.00;;;6.50;87.70;;;;;;5147909;27;20103;-72
2024/01/25 11:06:46;;;;;;;21.30;3.80;;;6.60;87.50;;;;;;5150752;27;20862;-72
2024/01/25 11:09:18;;;;;;;27.17;4.33;;;6.60;87.30;;;;;;5167603;27;20140;-72
2024/01/25 11:11:48;;;;;;;27.42;5.53;;;6.70;87.30;;;;;;5146909;27;20248;-72
2024/01/25 11:14:16;;;;;;;28.35;5.25;;;6.80;87.20;;;;;;5152559;27;20047;-72
2024/01/25 11:16:46;;;;;;;30.95;5.05;;;6.80;87.10;;;;;;5171105;27;21002;-72
2024/01/25 11:19:23;;;;;;;22.17;4.60;;;6.90;87.00;;;;;;5138723;27;20051;-72
2024/01/25 11:21:51;;;;;;;26.03;4.80;;;6.90;86.90;;;;;;5155849;27;20496;-72
2024/01/25 11:24:21;;;;;;;26.88;5.65;;;7.00;86.70;;;;;;5149340;27;21817;-72
2024/01/25 11:26:50;;;;;;;27.33;5.70;;;7.00;86.60;;;;;;5155371;27;20054;-72
2024/01/25 11:29:18;;;;;;;29.52;5.40;;;7.00;86.60;;;;;;5150466;27;20080;-72
2024/01/25 11:31:45;;;;;;;28.02;4.97;;;7.10;86.30;;;;;;5156248;27;20047;-72
2024/01/25 11:34:14;;;;;;;21.73;3.43;;;7.20;86.20;;;;;;5152796;27;20047;-72
2024/01/25 11:36:41;;;;;;;25.17;5.50;;;7.20;86.20;;;;;;5168308;27;21083;-72
2024/01/25 11:39:11;;;;;;;26.75;4.53;;;7.20;86.00;;;;;;5145191;27;20128;-72
2024/01/25 11:41:38;;;;;;;28.83;5.10;;;7.30;85.90;;;;;;5151271;27;20086;-72
2024/01/25 11:44:06;;;;;;;18.13;3.72;;;7.30;85.70;;;;;;5152175;27;20115;-72
2024/01/25 11:46:34;;;;;;;20.47;4.17;;;7.40;85.40;;;;;;5145985;27;20785;-72
2024/01/25 11:49:01;;;;;;;20.48;3.90;;;7.40;85.40;;;;;;5149088;27;20330;-72
2024/01/25 11:51:28;;;;;;;27.00;4.60;;;7.40;85.50;;;;;;5154852;27;20103;-72
2024/01/25 11:53:56;;;;;;;24.33;4.65;;;7.50;85.30;;;;;;5170766;27;20111;-72
2024/01/25 11:56:28;;;;;;;26.25;4.90;;;7.50;85.20;;;;;;5167945;27;20876;-73
2024/01/25 11:58:56;;;;;;;24.77;5.00;;;7.50;84.90;;;;;;5149861;27;20854;-72
2024/01/25 12:01:25;;;;;;;25.88;4.90;;;7.50;84.70;;;;;;5150749;27;20349;-71
2024/01/25 12:03:52;;;;;;;30.20;5.40;;;7.60;84.60;;;;;;5164783;27;20625;-71
2024/01/25 12:06:19;;;;;;;26.38;4.03;;;7.60;84.50;;;;;;5144645;27;20045;-72
2024/01/25 12:08:48;;;;;;;21.30;4.43;;;7.60;84.40;;;;;;5149081;27;20157;-72
2024/01/25 12:11:15;;;;;;;21.13;5.10;;;7.60;84.40;;;;;;5166538;27;20054;-72
2024/01/25 12:13:43;;;;;;;22.77;4.13;;;7.60;84.40;;;;;;5146808;27;20337;-72
2024/01/25 12:16:11;;;;;;;22.65;4.20;;;7.60;84.40;;;;;;5144698;27;20043;-72
2024/01/25 12:18:41;;;;;;;27.02;4.72;;;7.60;84.40;;;;;;5167994;27;20936;-72
2024/01/25 12:21:08;;;;;;;24.52;4.45;;;7.70;84.50;;;;;;5148875;27;20806;-72
2024/01/25 12:23:36;;;;;;;24.23;5.10;;;7.70;84.30;;;;;;5148804;27;20075;-72
2024/01/25 12:26:05;;;;;;;24.60;5.15;;;7.80;84.10;;;;;;5128717;27;20674;-72
2024/01/25 12:28:33;;;;;;;28.90;5.53;;;7.80;83.70;;;;;;5146460;27;20108;-72
2024/01/25 12:31:01;;;;;;;16.85;3.38;;;7.80;83.50;;;;;;5127451;27;20047;-72
2024/01/25 12:33:28;;;;;;;17.85;3.35;;;7.80;83.20;;;;;;5147979;27;20112;-72
2024/01/25 12:35:57;;;;;;;18.13;3.97;;;7.90;82.30;;;;;;5135655;27;20050;-71
2024/01/25 12:38:25;;;;;;;24.42;4.47;;;7.90;82.30;;;;;;5150077;27;20276;-72
2024/01/25 12:40:52;;;;;;;15.88;3.65;;;7.80;82.70;;;;;;5162565;27;20513;-72
2024/01/25 12:43:21;;;;;;;18.25;3.25;;;7.90;82.80;;;;;;5147971;27;20775;-72
2024/01/25 12:45:48;;;;;;;29.60;5.43;;;7.90;82.40;;;;;;5146936;27;20125;-72
2024/01/25 12:48:16;;;;;;;27.97;5.43;;;8.00;82.40;;;;;;5129656;27;20043;-72
2024/01/25 12:50:43;;;;;;;22.80;5.40;;;8.00;82.40;;;;;;5146257;27;20328;-72
2024/01/25 12:53:12;;;;;;;24.00;4.55;;;8.00;82.50;;;;;;5129891;27;20172;-72
2024/01/25 12:55:39;;;;;;;23.55;5.00;;;8.00;82.50;;;;;;5148011;27;20043;-72
2024/01/25 12:58:06;;;;;;;23.98;4.40;;;8.00;82.50;;;;;;5164697;27;20129;-72
2024/01/25 13:00:33;;;;;;;21.30;4.37;;;8.00;82.30;;;;;;5143018;27;20047;-72
2024/01/25 13:03:01;;;;;;;20.92;4.05;;;8.00;82.00;;;;;;5168339;27;20260;-72
2024/01/25 13:05:29;;;;;;;25.85;4.97;;;8.00;82.20;;;;;;5150159;27;20042;-72
2024/01/25 13:07:56;;;;;;;24.67;4.75;;;8.00;82.30;;;;;;5167235;27;20156;-72
2024/01/25 13:10:25;;;;;;;22.98;5.10;;;8.00;82.30;;;;;;5131618;27;20978;-72